sensor_id;sensor_type;location;lat;lon;timestamp;pressure;altitude;pressure_sealevel;temperature;humidity
21547;BME280;41275;51.912;4.388;2023-12-29T00:00:55;100647.09;;;16.23;52.06
21547;BME280;41275;51.912;4.388;2023-12-29T00:06:16;100640.94;;;16.38;52.04
21547;BME280;41275;51.912;4.388;2023-12-29T00:11:38;100626.19;;;16.61;51.55
21547;BME280;41275;51.912;4.388;2023-12-29T00:16:59;100640.63;;;16.75;51.30
21547;BME280;41275;51.912;4.388;2023-12-29T00:22:21;100619.50;;;16.79;50.63
21547;BME280;41275;51.912;4.388;2023-12-29T00:27:42;100617.63;;;16.79;50.76
21547;BME280;41275;51.912;4.388;2023-12-29T00:33:03;100622.97;;;16.79;50.75
21547;BME280;41275;51.912;4.388;2023-12-29T00:38:29;100636.06;;;16.71;50.68
21547;BME280;41275;51.912;4.388;2023-12-29T00:43:50;100629.69;;;16.66;50.88
21547;BME280;41275;51.912;4.388;2023-12-29T00:49:11;100614.47;;;16.57;50.55
21547;BME280;41275;51.912;4.388;2023-12-29T00:54:32;100634.50;;;16.54;51.32
21547;BME280;41275;51.912;4.388;2023-12-29T00:59:54;100600.56;;;16.50;51.11
21547;BME280;41275;51.912;4.388;2023-12-29T01:05:16;100605.66;;;16.46;51.37
21547;BME280;41275;51.912;4.388;2023-12-29T01:10:38;100594.44;;;16.49;51.46
21547;BME280;41275;51.912;4.388;2023-12-29T01:15:59;100601.66;;;16.49;51.53
21547;BME280;41275;51.912;4.388;2023-12-29T01:21:20;100591.50;;;16.51;51.45
21547;BME280;41275;51.912;4.388;2023-12-29T01:26:42;100601.66;;;16.49;51.59
21547;BME280;41275;51.912;4.388;2023-12-29T01:32:03;100609.41;;;16.45;51.36
21547;BME280;41275;51.912;4.388;2023-12-29T01:37:27;100615.28;;;16.42;51.54
21547;BME280;41275;51.912;4.388;2023-12-29T01:42:49;100602.75;;;16.22;51.81
21547;BME280;41275;51.912;4.388;2023-12-29T01:48:10;100591.56;;;16.10;51.87
21547;BME280;41275;51.912;4.388;2023-12-29T01:53:31;100595.31;;;16.14;52.40
21547;BME280;41275;51.912;4.388;2023-12-29T01:58:55;100612.41;;;16.08;52.69
21547;BME280;41275;51.912;4.388;2023-12-29T02:04:17;100619.63;;;15.92;53.05
21547;BME280;41275;51.912;4.388;2023-12-29T02:09:39;100635.88;;;15.85;53.07
21547;BME280;41275;51.912;4.388;2023-12-29T02:15:00;100625.72;;;15.82;53.59
21547;BME280;41275;51.912;4.388;2023-12-29T02:20:22;100627.00;;;15.59;53.54
21547;BME280;41275;51.912;4.388;2023-12-29T02:25:43;100635.56;;;15.56;54.42
21547;BME280;41275;51.912;4.388;2023-12-29T02:31:10;100636.66;;;15.65;54.88
21547;BME280;41275;51.912;4.388;2023-12-29T02:36:34;100629.44;;;15.71;55.19
21547;BME280;41275;51.912;4.388;2023-12-29T02:42:03;100640.94;;;15.82;55.39
21547;BME280;41275;51.912;4.388;2023-12-29T02:47:25;100644.94;;;15.89;55.49
21547;BME280;41275;51.912;4.388;2023-12-29T02:52:47;100647.38;;;16.01;55.38
21547;BME280;41275;51.912;4.388;2023-12-29T02:58:09;100637.19;;;16.18;55.52
21547;BME280;41275;51.912;4.388;2023-12-29T03:03:30;100617.44;;;16.30;55.34
21547;BME280;41275;51.912;4.388;2023-12-29T03:08:51;100616.34;;;16.46;55.51
21547;BME280;41275;51.912;4.388;2023-12-29T03:14:15;100615.81;;;16.44;55.01
21547;BME280;41275;51.912;4.388;2023-12-29T03:19:36;100609.97;;;16.37;55.05
21547;BME280;41275;51.912;4.388;2023-12-29T03:24:57;100606.50;;;16.31;55.03
21547;BME280;41275;51.912;4.388;2023-12-29T03:30:18;100611.59;;;16.28;55.20
21547;BME280;41275;51.912;4.388;2023-12-29T03:35:40;100611.03;;;16.36;55.03
21547;BME280;41275;51.912;4.388;2023-12-29T03:41:01;100615.53;;;16.45;54.56
21547;BME280;41275;51.912;4.388;2023-12-29T03:46:23;100621.97;;;16.55;54.39
21547;BME280;41275;51.912;4.388;2023-12-29T03:51:44;100616.84;;;16.63;53.67
21547;BME280;41275;51.912;4.388;2023-12-29T03:57:05;100609.06;;;16.77;53.61
21547;BME280;41275;51.912;4.388;2023-12-29T04:02:26;100609.06;;;16.87;53.05
21547;BME280;41275;51.912;4.388;2023-12-29T04:07:47;100609.03;;;16.92;52.68
21547;BME280;41275;51.912;4.388;2023-12-29T04:13:09;100611.16;;;16.96;52.62
21547;BME280;41275;51.912;4.388;2023-12-29T04:18:30;100621.84;;;16.96;52.30
21547;BME280;41275;51.912;4.388;2023-12-29T04:23:53;100604.75;;;16.91;51.90
21547;BME280;41275;51.912;4.388;2023-12-29T04:29:14;100638.16;;;16.89;51.82
21547;BME280;41275;51.912;4.388;2023-12-29T04:34:36;100617.84;;;16.93;51.25
21547;BME280;41275;51.912;4.388;2023-12-29T04:39:57;100595.41;;;16.89;51.30
21547;BME280;41275;51.912;4.388;2023-12-29T04:45:19;100596.50;;;16.88;51.01
21547;BME280;41275;51.912;4.388;2023-12-29T04:50:40;100587.66;;;16.87;50.85
21547;BME280;41275;51.912;4.388;2023-12-29T04:56:01;100596.50;;;16.88;50.99
21547;BME280;41275;51.912;4.388;2023-12-29T05:01:23;100599.44;;;16.86;50.88
21547;BME280;41275;51.912;4.388;2023-12-29T05:06:44;100616.00;;;16.88;50.89
21547;BME280;41275;51.912;4.388;2023-12-29T05:12:05;100601.81;;;16.93;50.75
21547;BME280;41275;51.912;4.388;2023-12-29T05:17:27;100597.53;;;16.92;50.54
21547;BME280;41275;51.912;4.388;2023-12-29T05:22:48;100583.09;;;16.93;50.94
21547;BME280;41275;51.912;4.388;2023-12-29T05:28:10;100582.31;;;16.87;50.55
21547;BME280;41275;51.912;4.388;2023-12-29T05:33:32;100598.94;;;16.79;50.64
21547;BME280;41275;51.912;4.388;2023-12-29T05:38:55;100582.63;;;16.76;50.84
21547;BME280;41275;51.912;4.388;2023-12-29T05:44:17;100591.44;;;16.71;50.51
21547;BME280;41275;51.912;4.388;2023-12-29T05:49:38;100576.53;;;16.60;50.96
21547;BME280;41275;51.912;4.388;2023-12-29T05:55:00;100569.84;;;16.57;50.68
21547;BME280;41275;51.912;4.388;2023-12-29T06:00:21;100573.28;;;16.68;51.00
21547;BME280;41275;51.912;4.388;2023-12-29T06:05:42;100564.44;;;16.78;51.38
21547;BME280;41275;51.912;4.388;2023-12-29T06:11:04;100556.44;;;16.83;51.04
21547;BME280;41275;51.912;4.388;2023-12-29T06:16:25;100548.91;;;16.85;51.38
21547;BME280;41275;51.912;4.388;2023-12-29T06:21:48;100559.59;;;16.85;51.44
21547;BME280;41275;51.912;4.388;2023-12-29T06:27:09;100563.41;;;16.79;51.53
21547;BME280;41275;51.912;4.388;2023-12-29T06:32:31;100560.97;;;16.72;51.53
21547;BME280;41275;51.912;4.388;2023-12-29T06:37:52;100563.13;;;16.75;51.53
21547;BME280;41275;51.912;4.388;2023-12-29T06:43:14;100558.06;;;16.68;51.61
21547;BME280;41275;51.912;4.388;2023-12-29T06:48:36;100559.41;;;16.61;51.87
21547;BME280;41275;51.912;4.388;2023-12-29T06:53:57;100547.94;;;16.55;52.20
21547;BME280;41275;51.912;4.388;2023-12-29T06:59:19;100557.84;;;16.55;52.33
21547;BME280;41275;51.912;4.388;2023-12-29T07:04:42;100587.97;;;16.71;52.76
21547;BME280;41275;51.912;4.388;2023-12-29T07:10:04;100591.91;;;16.99;52.19
21547;BME280;41275;51.912;4.388;2023-12-29T07:15:27;100580.09;;;17.05;51.96
21547;BME280;41275;51.912;4.388;2023-12-29T07:20:48;100568.84;;;17.08;52.17
21547;BME280;41275;51.912;4.388;2023-12-29T07:26:09;100569.66;;;17.08;52.30
21547;BME280;41275;51.912;4.388;2023-12-29T07:31:31;100555.44;;;17.13;52.03
21547;BME280;41275;51.912;4.388;2023-12-29T07:36:52;100559.47;;;17.15;52.03
21547;BME280;41275;51.912;4.388;2023-12-29T07:42:14;100586.81;;;17.02;52.13
21547;BME280;41275;51.912;4.388;2023-12-29T07:47:38;100563.56;;;16.98;51.97
21547;BME280;41275;51.912;4.388;2023-12-29T07:52:59;100585.19;;;17.01;52.40
21547;BME280;41275;51.912;4.388;2023-12-29T07:58:23;100580.66;;;17.02;52.14
21547;BME280;41275;51.912;4.388;2023-12-29T08:03:45;100574.81;;;16.89;52.26
21547;BME280;41275;51.912;4.388;2023-12-29T08:09:06;100596.78;;;16.86;52.40
21547;BME280;41275;51.912;4.388;2023-12-29T08:14:28;100579.69;;;16.82;52.61
21547;BME280;41275;51.912;4.388;2023-12-29T08:19:49;100585.50;;;16.89;52.64
21547;BME280;41275;51.912;4.388;2023-12-29T08:25:11;100598.31;;;16.98;52.60
21547;BME280;41275;51.912;4.388;2023-12-29T08:30:34;100592.16;;;17.02;52.44
21547;BME280;41275;51.912;4.388;2023-12-29T08:35:58;100598.56;;;17.06;51.96
21547;BME280;41275;51.912;4.388;2023-12-29T08:41:21;100601.47;;;17.05;52.15
21547;BME280;41275;51.912;4.388;2023-12-29T08:46:43;100603.31;;;17.14;52.32
21547;BME280;41275;51.912;4.388;2023-12-29T08:52:04;100607.03;;;17.18;52.16
21547;BME280;41275;51.912;4.388;2023-12-29T08:57:26;100605.66;;;17.26;51.60
21547;BME280;41275;51.912;4.388;2023-12-29T09:02:47;100606.97;;;17.29;51.77
21547;BME280;41275;51.912;4.388;2023-12-29T09:08:08;100610.47;;;17.29;51.91
21547;BME280;41275;51.912;4.388;2023-12-29T09:13:29;100604.56;;;17.32;51.76
21547;BME280;41275;51.912;4.388;2023-12-29T09:18:51;100587.66;;;17.37;51.45
21547;BME280;41275;51.912;4.388;2023-12-29T09:24:12;100617.66;;;17.34;51.52
21547;BME280;41275;51.912;4.388;2023-12-29T09:29:33;100625.09;;;17.42;51.08
21547;BME280;41275;51.912;4.388;2023-12-29T09:34:55;100645.47;;;17.38;51.12
21547;BME280;41275;51.912;4.388;2023-12-29T09:40:16;100658.03;;;17.37;51.45
21547;BME280;41275;51.912;4.388;2023-12-29T09:45:38;100651.06;;;17.41;51.60
21547;BME280;41275;51.912;4.388;2023-12-29T09:50:59;100652.94;;;17.41;51.18
21547;BME280;41275;51.912;4.388;2023-12-29T09:56:21;100660.34;;;17.54;51.53
21547;BME280;41275;51.912;4.388;2023-12-29T10:01:45;100664.06;;;17.58;51.10
21547;BME280;41275;51.912;4.388;2023-12-29T10:07:07;100645.03;;;17.60;51.15
21547;BME280;41275;51.912;4.388;2023-12-29T10:12:29;100684.94;;;17.61;51.31
21547;BME280;41275;51.912;4.388;2023-12-29T10:18:20;100683.53;;;17.69;50.94
21547;BME280;41275;51.912;4.388;2023-12-29T10:23:49;100695.31;;;17.68;50.57
21547;BME280;41275;51.912;4.388;2023-12-29T10:29:14;100699.56;;;17.74;50.57
21547;BME280;41275;51.912;4.388;2023-12-29T10:34:35;100699.84;;;17.73;50.60
21547;BME280;41275;51.912;4.388;2023-12-29T10:39:56;100707.59;;;17.74;50.10
21547;BME280;41275;51.912;4.388;2023-12-29T10:45:18;100710.81;;;17.71;50.42
21547;BME280;41275;51.912;4.388;2023-12-29T10:50:45;100708.13;;;17.71;50.81
21547;BME280;41275;51.912;4.388;2023-12-29T10:56:17;100717.00;;;17.77;50.35
21547;BME280;41275;51.912;4.388;2023-12-29T11:01:41;100706.53;;;17.80;50.39
21547;BME280;41275;51.912;4.388;2023-12-29T11:07:02;100705.16;;;17.83;50.37
21547;BME280;41275;51.912;4.388;2023-12-29T11:12:24;100707.78;;;17.88;50.27
21547;BME280;41275;51.912;4.388;2023-12-29T11:17:48;100712.34;;;17.87;50.14
21547;BME280;41275;51.912;4.388;2023-12-29T11:23:11;100701.97;;;17.81;50.17
21547;BME280;41275;51.912;4.388;2023-12-29T11:28:36;100708.88;;;17.87;50.26
21547;BME280;41275;51.912;4.388;2023-12-29T11:34:02;100711.53;;;17.92;49.92
21547;BME280;41275;51.912;4.388;2023-12-29T11:39:38;100692.28;;;17.90;49.72
21547;BME280;41275;51.912;4.388;2023-12-29T11:45:39;100698.16;;;17.92;49.87
21547;BME280;41275;51.912;4.388;2023-12-29T11:51:01;100690.09;;;17.97;49.62
21547;BME280;41275;51.912;4.388;2023-12-29T11:56:22;100687.91;;;18.04;49.73
21547;BME280;41275;51.912;4.388;2023-12-29T12:01:45;100684.09;;;18.10;49.39
21547;BME280;41275;51.912;4.388;2023-12-29T12:07:16;100664.78;;;18.13;49.30
21547;BME280;41275;51.912;4.388;2023-12-29T12:12:42;100672.81;;;18.13;49.33
21547;BME280;41275;51.912;4.388;2023-12-29T12:18:04;100665.34;;;18.10;48.95
21547;BME280;41275;51.912;4.388;2023-12-29T12:23:33;100659.25;;;18.00;48.38
21547;BME280;41275;51.912;4.388;2023-12-29T12:28:54;100667.56;;;17.98;48.60
21547;BME280;41275;51.912;4.388;2023-12-29T12:34:16;100666.19;;;18.06;48.25
21547;BME280;41275;51.912;4.388;2023-12-29T12:39:41;100658.81;;;18.22;48.44
21547;BME280;41275;51.912;4.388;2023-12-29T12:45:12;100638.53;;;18.45;47.95
21547;BME280;41275;51.912;4.388;2023-12-29T12:50:43;100634.28;;;18.38;47.17
21547;BME280;41275;51.912;4.388;2023-12-29T12:56:05;100578.31;;;18.37;47.28
21547;BME280;41275;51.912;4.388;2023-12-29T13:01:28;100636.31;;;18.23;47.07
21547;BME280;41275;51.912;4.388;2023-12-29T13:06:50;100655.91;;;18.18;47.39
21547;BME280;41275;51.912;4.388;2023-12-29T13:12:12;100657.25;;;18.15;47.06
21547;BME280;41275;51.912;4.388;2023-12-29T13:17:34;100644.88;;;18.25;47.17
21547;BME280;41275;51.912;4.388;2023-12-29T13:22:56;100636.84;;;18.25;47.01
21547;BME280;41275;51.912;4.388;2023-12-29T13:28:17;100633.59;;;18.28;47.59
21547;BME280;41275;51.912;4.388;2023-12-29T13:39:29;100621.25;;;18.27;47.45
21547;BME280;41275;51.912;4.388;2023-12-29T13:44:54;100622.91;;;18.23;48.16
21547;BME280;41275;51.912;4.388;2023-12-29T13:50:16;100621.84;;;18.24;48.23
21547;BME280;41275;51.912;4.388;2023-12-29T13:55:38;100608.78;;;18.17;48.58
21547;BME280;41275;51.912;4.388;2023-12-29T14:01:03;100636.97;;;18.09;48.84
21547;BME280;41275;51.912;4.388;2023-12-29T14:06:32;100632.97;;;18.07;49.03
21547;BME280;41275;51.912;4.388;2023-12-29T14:11:59;100630.63;;;17.56;48.14
21547;BME280;41275;51.912;4.388;2023-12-29T14:17:21;100621.94;;;16.50;49.47
21547;BME280;41275;51.912;4.388;2023-12-29T14:22:43;100632.16;;;16.12;50.98
21547;BME280;41275;51.912;4.388;2023-12-29T14:28:14;100600.09;;;15.71;51.85
21547;BME280;41275;51.912;4.388;2023-12-29T14:33:36;100584.38;;;15.69;52.42
21547;BME280;41275;51.912;4.388;2023-12-29T14:38:57;100564.09;;;15.89;53.29
21547;BME280;41275;51.912;4.388;2023-12-29T14:44:19;100556.56;;;16.22;53.80
21547;BME280;41275;51.912;4.388;2023-12-29T14:49:41;100553.84;;;16.47;53.84
21547;BME280;41275;51.912;4.388;2023-12-29T14:55:04;100565.56;;;16.56;53.83
21547;BME280;41275;51.912;4.388;2023-12-29T15:00:25;100552.19;;;16.61;54.33
21547;BME280;41275;51.912;4.388;2023-12-29T15:05:47;100539.88;;;16.65;54.45
21547;BME280;41275;51.912;4.388;2023-12-29T15:11:08;100535.34;;;16.71;54.41
21547;BME280;41275;51.912;4.388;2023-12-29T15:16:29;100532.13;;;16.79;54.32
21547;BME280;41275;51.912;4.388;2023-12-29T15:21:51;100530.47;;;16.88;54.30
21547;BME280;41275;51.912;4.388;2023-12-29T15:27:14;100513.66;;;16.83;53.78
21547;BME280;41275;51.912;4.388;2023-12-29T15:32:35;100516.09;;;16.79;54.06
21547;BME280;41275;51.912;4.388;2023-12-29T15:37:57;100512.63;;;16.74;53.91
21547;BME280;41275;51.912;4.388;2023-12-29T15:43:18;100512.09;;;16.77;54.03
21547;BME280;41275;51.912;4.388;2023-12-29T15:48:39;100509.91;;;16.84;54.27
21547;BME280;41275;51.912;4.388;2023-12-29T15:54:00;100496.59;;;16.74;53.77
21547;BME280;41275;51.912;4.388;2023-12-29T15:59:22;100488.69;;;16.48;53.92
21547;BME280;41275;51.912;4.388;2023-12-29T16:04:43;100511.94;;;16.37;54.12
21547;BME280;41275;51.912;4.388;2023-12-29T16:10:05;100513.00;;;16.41;53.87
21547;BME280;41275;51.912;4.388;2023-12-29T16:15:28;100534.09;;;16.48;52.45
21547;BME280;41275;51.912;4.388;2023-12-29T16:20:49;100522.59;;;16.42;52.53
21547;BME280;41275;51.912;4.388;2023-12-29T16:26:10;100547.19;;;16.44;52.31
21547;BME280;41275;51.912;4.388;2023-12-29T16:31:32;100548.78;;;16.40;52.08
21547;BME280;41275;51.912;4.388;2023-12-29T16:36:59;100549.34;;;16.37;52.42
21547;BME280;41275;51.912;4.388;2023-12-29T16:42:21;100569.59;;;16.59;52.23
21547;BME280;41275;51.912;4.388;2023-12-29T16:47:42;100590.13;;;16.63;52.33
21547;BME280;41275;51.912;4.388;2023-12-29T16:53:03;100591.53;;;16.30;52.24
21547;BME280;41275;51.912;4.388;2023-12-29T16:58:25;100588.09;;;15.99;51.78
21547;BME280;41275;51.912;4.388;2023-12-29T17:03:46;100581.69;;;15.80;51.25
21547;BME280;41275;51.912;4.388;2023-12-29T17:09:08;100599.06;;;15.72;50.49
21547;BME280;41275;51.912;4.388;2023-12-29T17:14:29;100601.19;;;15.70;50.28
21547;BME280;41275;51.912;4.388;2023-12-29T17:19:51;100604.63;;;15.76;50.04
21547;BME280;41275;51.912;4.388;2023-12-29T17:25:12;100615.31;;;15.76;50.03
21547;BME280;41275;51.912;4.388;2023-12-29T17:30:33;100628.34;;;15.62;49.76
21547;BME280;41275;51.912;4.388;2023-12-29T17:35:55;100627.00;;;15.49;50.39
21547;BME280;41275;51.912;4.388;2023-12-29T17:41:16;100630.47;;;15.44;50.45
21547;BME280;41275;51.912;4.388;2023-12-29T17:46:38;100655.53;;;15.54;50.80
21547;BME280;41275;51.912;4.388;2023-12-29T17:51:59;100648.63;;;15.58;51.02
21547;BME280;41275;51.912;4.388;2023-12-29T17:57:21;100657.41;;;15.63;51.19
21547;BME280;41275;51.912;4.388;2023-12-29T18:02:42;100656.13;;;15.71;51.30
21547;BME280;41275;51.912;4.388;2023-12-29T18:08:03;100658.53;;;15.67;51.35
21547;BME280;41275;51.912;4.388;2023-12-29T18:13:25;100675.59;;;15.71;50.79
21547;BME280;41275;51.912;4.388;2023-12-29T18:18:46;100672.69;;;15.73;50.83
21547;BME280;41275;51.912;4.388;2023-12-29T18:24:08;100678.56;;;15.80;50.68
21547;BME280;41275;51.912;4.388;2023-12-29T18:29:29;100689.50;;;15.79;50.30
21547;BME280;41275;51.912;4.388;2023-12-29T18:34:51;100699.66;;;15.87;50.17
21547;BME280;41275;51.912;4.388;2023-12-29T18:40:12;100691.66;;;15.92;49.37
21547;BME280;41275;51.912;4.388;2023-12-29T18:45:33;100686.34;;;15.92;48.89
21547;BME280;41275;51.912;4.388;2023-12-29T18:50:55;100696.72;;;15.93;48.49
21547;BME280;41275;51.912;4.388;2023-12-29T18:56:16;100701.00;;;15.94;48.39
21547;BME280;41275;51.912;4.388;2023-12-29T19:01:46;100712.75;;;15.93;48.02
21547;BME280;41275;51.912;4.388;2023-12-29T19:07:07;100708.75;;;15.96;48.44
21547;BME280;41275;51.912;4.388;2023-12-29T19:12:29;100706.09;;;16.01;48.27
21547;BME280;41275;51.912;4.388;2023-12-29T19:17:50;100707.94;;;16.11;48.12
21547;BME280;41275;51.912;4.388;2023-12-29T19:23:11;100715.19;;;16.20;47.98
21547;BME280;41275;51.912;4.388;2023-12-29T19:28:32;100695.41;;;16.27;48.19
21547;BME280;41275;51.912;4.388;2023-12-29T19:33:54;100699.69;;;16.17;47.91
21547;BME280;41275;51.912;4.388;2023-12-29T19:39:15;100711.69;;;16.05;48.43
21547;BME280;41275;51.912;4.388;2023-12-29T19:44:36;100702.06;;;15.99;48.52
21547;BME280;41275;51.912;4.388;2023-12-29T19:49:58;100698.84;;;15.91;48.42
21547;BME280;41275;51.912;4.388;2023-12-29T19:55:19;100681.50;;;15.94;48.91
21547;BME280;41275;51.912;4.388;2023-12-29T20:00:40;100685.28;;;16.08;49.35
21547;BME280;41275;51.912;4.388;2023-12-29T20:06:02;100687.66;;;16.05;49.20
21547;BME280;41275;51.912;4.388;2023-12-29T20:11:23;100699.94;;;16.01;49.79
21547;BME280;41275;51.912;4.388;2023-12-29T20:16:44;100707.13;;;15.95;50.07
21547;BME280;41275;51.912;4.388;2023-12-29T20:22:06;100704.75;;;15.93;50.18
21547;BME280;41275;51.912;4.388;2023-12-29T20:27:28;100713.03;;;16.02;50.27
21547;BME280;41275;51.912;4.388;2023-12-29T20:32:49;100715.19;;;16.15;49.89
21547;BME280;41275;51.912;4.388;2023-12-29T20:38:12;100739.22;;;16.15;49.14
21547;BME280;41275;51.912;4.388;2023-12-29T20:43:33;100738.13;;;16.16;48.97
21547;BME280;41275;51.912;4.388;2023-12-29T20:48:54;100737.34;;;16.31;48.95
21547;BME280;41275;51.912;4.388;2023-12-29T20:54:16;100741.63;;;16.48;48.21
21547;BME280;41275;51.912;4.388;2023-12-29T20:59:37;100750.97;;;16.50;47.57
21547;BME280;41275;51.912;4.388;2023-12-29T21:05:00;100762.72;;;16.44;47.93
21547;BME280;41275;51.912;4.388;2023-12-29T21:10:24;100778.19;;;16.42;47.49
21547;BME280;41275;51.912;4.388;2023-12-29T21:15:45;100772.84;;;16.27;47.35
21547;BME280;41275;51.912;4.388;2023-12-29T21:21:06;100787.28;;;16.15;47.07
21547;BME280;41275;51.912;4.388;2023-12-29T21:26:28;100809.66;;;16.04;46.40
21547;BME280;41275;51.912;4.388;2023-12-29T21:31:49;100782.13;;;15.93;46.21
21547;BME280;41275;51.912;4.388;2023-12-29T21:37:10;100772.50;;;15.82;46.32
21547;BME280;41275;51.912;4.388;2023-12-29T21:42:33;100770.34;;;15.79;46.25
21547;BME280;41275;51.912;4.388;2023-12-29T21:47:57;100781.81;;;15.80;46.04
21547;BME280;41275;51.912;4.388;2023-12-29T21:53:18;100782.38;;;15.87;46.67
21547;BME280;41275;51.912;4.388;2023-12-29T21:58:39;100801.59;;;15.89;46.42
21547;BME280;41275;51.912;4.388;2023-12-29T22:04:01;100781.84;;;15.85;46.04
21547;BME280;41275;51.912;4.388;2023-12-29T22:09:24;100793.03;;;15.77;46.46
21547;BME280;41275;51.912;4.388;2023-12-29T22:14:47;100806.88;;;15.68;46.50
21547;BME280;41275;51.912;4.388;2023-12-29T22:20:08;100804.91;;;15.59;46.34
21547;BME280;41275;51.912;4.388;2023-12-29T22:25:30;100814.78;;;15.53;45.73
21547;BME280;41275;51.912;4.388;2023-12-29T22:30:53;100828.63;;;15.50;45.56
21547;BME280;41275;51.912;4.388;2023-12-29T22:36:16;100849.13;;;15.44;45.26
21547;BME280;41275;51.912;4.388;2023-12-29T22:41:39;100847.47;;;15.38;45.68
21547;BME280;41275;51.912;4.388;2023-12-29T22:47:01;100853.59;;;15.34;45.22
21547;BME280;41275;51.912;4.388;2023-12-29T22:52:23;100862.06;;;15.26;45.06
21547;BME280;41275;51.912;4.388;2023-12-29T22:57:45;100884.41;;;15.19;44.84
21547;BME280;41275;51.912;4.388;2023-12-29T23:03:06;100888.34;;;15.12;45.24
21547;BME280;41275;51.912;4.388;2023-12-29T23:08:27;100895.53;;;15.11;44.37
21547;BME280;41275;51.912;4.388;2023-12-29T23:13:48;100890.22;;;15.11;44.74
21547;BME280;41275;51.912;4.388;2023-12-29T23:19:10;100906.47;;;15.10;45.11
21547;BME280;41275;51.912;4.388;2023-12-29T23:24:31;100911.03;;;15.14;45.00
21547;BME280;41275;51.912;4.388;2023-12-29T23:29:52;100915.59;;;15.19;44.68
21547;BME280;41275;51.912;4.388;2023-12-29T23:35:16;100920.72;;;15.26;44.56
21547;BME280;41275;51.912;4.388;2023-12-29T23:40:38;100924.72;;;15.28;44.38
21547;BME280;41275;51.912;4.388;2023-12-29T23:45:59;100941.47;;;15.18;44.74
21547;BME280;41275;51.912;4.388;2023-12-29T23:51:20;100932.81;;;15.06;44.99
21547;BME280;41275;51.912;4.388;2023-12-29T23:56:42;100947.16;;;15.00;44.66
